sensor_id;sensor_type;location;lat;lon;timestamp;temperature;humidity
2751;DHT22;1383;48.362;10.908;2022-08-25T00:00:08;19.70;65.70
2751;DHT22;1383;48.362;10.908;2022-08-25T00:02:35;19.70;66.20
2751;DHT22;1383;48.362;10.908;2022-08-25T00:05:03;19.70;66.10
2751;DHT22;1383;48.362;10.908;2022-08-25T00:07:30;19.70;65.90
2751;DHT22;1383;48.362;10.908;2022-08-25T00:09:56;19.80;65.80
2751;DHT22;1383;48.362;10.908;2022-08-25T00:12:23;19.80;65.70
2751;DHT22;1383;48.362;10.908;2022-08-25T00:14:51;19.80;65.80
2751;DHT22;1383;48.362;10.908;2022-08-25T00:17:18;19.80;65.40
2751;DHT22;1383;48.362;10.908;2022-08-25T00:19:45;19.90;65.50
2751;DHT22;1383;48.362;10.908;2022-08-25T00:22:12;19.90;65.20
2751;DHT22;1383;48.362;10.908;2022-08-25T00:24:38;19.90;65.00
2751;DHT22;1383;48.362;10.908;2022-08-25T00:27:05;19.90;64.70
2751;DHT22;1383;48.362;10.908;2022-08-25T00:29:32;19.90;65.00
2751;DHT22;1383;48.362;10.908;2022-08-25T00:32:00;19.90;64.80
2751;DHT22;1383;48.362;10.908;2022-08-25T00:34:30;19.90;65.00
2751;DHT22;1383;48.362;10.908;2022-08-25T00:37:01;19.90;64.80
2751;DHT22;1383;48.362;10.908;2022-08-25T00:39:29;19.90;64.90
2751;DHT22;1383;48.362;10.908;2022-08-25T00:41:56;19.90;65.10
2751;DHT22;1383;48.362;10.908;2022-08-25T00:44:25;19.90;65.00
2751;DHT22;1383;48.362;10.908;2022-08-25T00:46:55;19.80;65.50
2751;DHT22;1383;48.362;10.908;2022-08-25T00:49:34;19.80;65.40
2751;DHT22;1383;48.362;10.908;2022-08-25T00:52:07;19.80;65.70
2751;DHT22;1383;48.362;10.908;2022-08-25T00:54:43;19.70;65.90
2751;DHT22;1383;48.362;10.908;2022-08-25T00:57:14;19.70;66.60
2751;DHT22;1383;48.362;10.908;2022-08-25T00:59:41;19.70;66.90
2751;DHT22;1383;48.362;10.908;2022-08-25T01:02:11;19.70;67.20
2751;DHT22;1383;48.362;10.908;2022-08-25T01:04:40;19.60;67.30
2751;DHT22;1383;48.362;10.908;2022-08-25T01:07:18;19.60;67.50
2751;DHT22;1383;48.362;10.908;2022-08-25T01:09:47;19.60;67.70
2751;DHT22;1383;48.362;10.908;2022-08-25T01:12:15;19.60;68.00
2751;DHT22;1383;48.362;10.908;2022-08-25T01:14:43;19.60;68.60
2751;DHT22;1383;48.362;10.908;2022-08-25T01:17:13;19.60;68.60
2751;DHT22;1383;48.362;10.908;2022-08-25T01:19:40;19.50;68.80
2751;DHT22;1383;48.362;10.908;2022-08-25T01:22:07;19.40;69.10
2751;DHT22;1383;48.362;10.908;2022-08-25T01:24:53;19.40;69.20
2751;DHT22;1383;48.362;10.908;2022-08-25T01:27:22;19.40;69.80
2751;DHT22;1383;48.362;10.908;2022-08-25T01:29:49;19.40;70.40
2751;DHT22;1383;48.362;10.908;2022-08-25T01:32:15;19.40;70.40
2751;DHT22;1383;48.362;10.908;2022-08-25T01:34:44;19.40;70.50
2751;DHT22;1383;48.362;10.908;2022-08-25T01:37:13;19.30;70.20
2751;DHT22;1383;48.362;10.908;2022-08-25T01:39:41;19.30;70.80
2751;DHT22;1383;48.362;10.908;2022-08-25T01:42:16;19.30;70.90
2751;DHT22;1383;48.362;10.908;2022-08-25T01:44:45;19.30;70.80
2751;DHT22;1383;48.362;10.908;2022-08-25T01:47:13;19.30;71.20
2751;DHT22;1383;48.362;10.908;2022-08-25T01:49:40;19.30;71.30
2751;DHT22;1383;48.362;10.908;2022-08-25T01:54:40;19.30;71.70
2751;DHT22;1383;48.362;10.908;2022-08-25T01:57:07;19.30;72.00
2751;DHT22;1383;48.362;10.908;2022-08-25T01:59:34;19.20;71.80
2751;DHT22;1383;48.362;10.908;2022-08-25T02:02:02;19.20;71.80
2751;DHT22;1383;48.362;10.908;2022-08-25T02:04:30;19.20;72.10
2751;DHT22;1383;48.362;10.908;2022-08-25T02:07:01;19.20;72.60
2751;DHT22;1383;48.362;10.908;2022-08-25T02:09:27;19.20;72.60
2751;DHT22;1383;48.362;10.908;2022-08-25T02:11:54;19.20;72.30
2751;DHT22;1383;48.362;10.908;2022-08-25T02:14:22;19.20;72.50
2751;DHT22;1383;48.362;10.908;2022-08-25T02:16:51;19.20;72.50
2751;DHT22;1383;48.362;10.908;2022-08-25T02:19:19;19.10;72.60
2751;DHT22;1383;48.362;10.908;2022-08-25T02:21:47;19.10;72.70
2751;DHT22;1383;48.362;10.908;2022-08-25T02:24:14;19.10;73.10
2751;DHT22;1383;48.362;10.908;2022-08-25T02:26:41;19.10;73.20
2751;DHT22;1383;48.362;10.908;2022-08-25T02:29:09;19.10;73.10
2751;DHT22;1383;48.362;10.908;2022-08-25T02:31:36;19.10;73.30
2751;DHT22;1383;48.362;10.908;2022-08-25T02:34:04;19.00;73.80
2751;DHT22;1383;48.362;10.908;2022-08-25T02:36:31;19.10;73.50
2751;DHT22;1383;48.362;10.908;2022-08-25T02:38:58;19.10;73.00
2751;DHT22;1383;48.362;10.908;2022-08-25T02:41:26;19.10;72.90
2751;DHT22;1383;48.362;10.908;2022-08-25T02:43:57;19.00;72.90
2751;DHT22;1383;48.362;10.908;2022-08-25T02:46:24;19.00;73.40
2751;DHT22;1383;48.362;10.908;2022-08-25T02:48:51;19.00;73.50
2751;DHT22;1383;48.362;10.908;2022-08-25T02:51:20;18.90;73.70
2751;DHT22;1383;48.362;10.908;2022-08-25T02:53:48;18.80;74.30
2751;DHT22;1383;48.362;10.908;2022-08-25T02:56:16;18.80;75.00
2751;DHT22;1383;48.362;10.908;2022-08-25T02:58:44;18.80;75.10
2751;DHT22;1383;48.362;10.908;2022-08-25T03:01:12;18.80;75.80
2751;DHT22;1383;48.362;10.908;2022-08-25T03:03:41;18.80;75.70
2751;DHT22;1383;48.362;10.908;2022-08-25T03:06:11;18.70;76.40
2751;DHT22;1383;48.362;10.908;2022-08-25T03:08:39;18.60;77.10
2751;DHT22;1383;48.362;10.908;2022-08-25T03:11:07;18.60;77.60
2751;DHT22;1383;48.362;10.908;2022-08-25T03:13:34;18.60;77.90
2751;DHT22;1383;48.362;10.908;2022-08-25T03:16:03;18.60;77.90
2751;DHT22;1383;48.362;10.908;2022-08-25T03:18:40;18.50;78.60
2751;DHT22;1383;48.362;10.908;2022-08-25T03:21:09;18.50;78.70
2751;DHT22;1383;48.362;10.908;2022-08-25T03:23:38;18.50;78.70
2751;DHT22;1383;48.362;10.908;2022-08-25T03:26:05;18.50;79.00
2751;DHT22;1383;48.362;10.908;2022-08-25T03:28:50;18.50;79.00
2751;DHT22;1383;48.362;10.908;2022-08-25T03:31:17;18.50;79.00
2751;DHT22;1383;48.362;10.908;2022-08-25T03:33:44;18.40;79.10
2751;DHT22;1383;48.362;10.908;2022-08-25T03:36:11;18.50;79.00
2751;DHT22;1383;48.362;10.908;2022-08-25T03:38:38;18.40;79.40
2751;DHT22;1383;48.362;10.908;2022-08-25T03:41:17;18.40;79.60
2751;DHT22;1383;48.362;10.908;2022-08-25T03:43:44;18.40;79.50
2751;DHT22;1383;48.362;10.908;2022-08-25T03:46:22;18.40;78.90
2751;DHT22;1383;48.362;10.908;2022-08-25T03:48:50;18.40;79.40
2751;DHT22;1383;48.362;10.908;2022-08-25T03:51:55;18.40;79.50
2751;DHT22;1383;48.362;10.908;2022-08-25T03:54:24;18.40;79.50
2751;DHT22;1383;48.362;10.908;2022-08-25T03:56:51;18.40;79.20
2751;DHT22;1383;48.362;10.908;2022-08-25T03:59:18;18.40;79.70
2751;DHT22;1383;48.362;10.908;2022-08-25T04:01:46;18.40;79.90
2751;DHT22;1383;48.362;10.908;2022-08-25T04:04:19;18.40;79.70
2751;DHT22;1383;48.362;10.908;2022-08-25T04:06:46;18.40;79.90
2751;DHT22;1383;48.362;10.908;2022-08-25T04:09:13;18.40;80.00
2751;DHT22;1383;48.362;10.908;2022-08-25T04:11:40;18.30;79.90
2751;DHT22;1383;48.362;10.908;2022-08-25T04:14:08;18.30;80.40
2751;DHT22;1383;48.362;10.908;2022-08-25T04:16:39;18.30;80.80
2751;DHT22;1383;48.362;10.908;2022-08-25T04:19:07;18.20;80.80
2751;DHT22;1383;48.362;10.908;2022-08-25T04:21:37;18.20;81.20
2751;DHT22;1383;48.362;10.908;2022-08-25T04:24:06;18.10;81.50
2751;DHT22;1383;48.362;10.908;2022-08-25T04:26:36;18.10;82.20
2751;DHT22;1383;48.362;10.908;2022-08-25T04:29:05;18.10;82.50
2751;DHT22;1383;48.362;10.908;2022-08-25T04:31:32;18.10;82.50
2751;DHT22;1383;48.362;10.908;2022-08-25T04:34:04;18.00;83.30
2751;DHT22;1383;48.362;10.908;2022-08-25T04:36:56;18.00;84.50
2751;DHT22;1383;48.362;10.908;2022-08-25T04:39:23;18.00;84.70
2751;DHT22;1383;48.362;10.908;2022-08-25T04:41:50;18.00;84.40
2751;DHT22;1383;48.362;10.908;2022-08-25T04:44:17;18.10;84.40
2751;DHT22;1383;48.362;10.908;2022-08-25T04:46:43;18.10;84.20
2751;DHT22;1383;48.362;10.908;2022-08-25T04:49:10;18.10;83.90
2751;DHT22;1383;48.362;10.908;2022-08-25T04:51:39;18.10;84.60
2751;DHT22;1383;48.362;10.908;2022-08-25T04:54:10;18.10;83.90
2751;DHT22;1383;48.362;10.908;2022-08-25T04:56:39;18.20;83.90
2751;DHT22;1383;48.362;10.908;2022-08-25T04:59:13;18.20;83.20
2751;DHT22;1383;48.362;10.908;2022-08-25T05:01:40;18.20;82.50
2751;DHT22;1383;48.362;10.908;2022-08-25T05:04:10;18.20;82.50
2751;DHT22;1383;48.362;10.908;2022-08-25T05:06:53;18.20;82.40
2751;DHT22;1383;48.362;10.908;2022-08-25T05:09:20;18.20;83.20
2751;DHT22;1383;48.362;10.908;2022-08-25T05:11:47;18.30;83.00
2751;DHT22;1383;48.362;10.908;2022-08-25T05:14:14;18.30;82.50
2751;DHT22;1383;48.362;10.908;2022-08-25T05:16:44;18.30;82.50
2751;DHT22;1383;48.362;10.908;2022-08-25T05:19:11;18.40;82.60
2751;DHT22;1383;48.362;10.908;2022-08-25T05:21:37;18.50;82.00
2751;DHT22;1383;48.362;10.908;2022-08-25T05:24:05;18.50;81.30
2751;DHT22;1383;48.362;10.908;2022-08-25T05:26:33;18.40;82.30
2751;DHT22;1383;48.362;10.908;2022-08-25T05:29:01;18.40;81.40
2751;DHT22;1383;48.362;10.908;2022-08-25T05:31:31;18.30;82.00
2751;DHT22;1383;48.362;10.908;2022-08-25T05:33:58;18.30;83.10
2751;DHT22;1383;48.362;10.908;2022-08-25T05:36:26;18.30;83.70
2751;DHT22;1383;48.362;10.908;2022-08-25T05:38:54;18.40;83.70
2751;DHT22;1383;48.362;10.908;2022-08-25T05:41:27;18.50;83.60
2751;DHT22;1383;48.362;10.908;2022-08-25T05:43:55;18.40;82.10
2751;DHT22;1383;48.362;10.908;2022-08-25T05:46:23;18.40;83.40
2751;DHT22;1383;48.362;10.908;2022-08-25T05:48:50;18.50;83.50
2751;DHT22;1383;48.362;10.908;2022-08-25T05:51:17;18.60;83.70
2751;DHT22;1383;48.362;10.908;2022-08-25T05:53:47;18.60;82.30
2751;DHT22;1383;48.362;10.908;2022-08-25T05:56:14;18.60;82.30
2751;DHT22;1383;48.362;10.908;2022-08-25T05:58:42;18.80;82.20
2751;DHT22;1383;48.362;10.908;2022-08-25T06:01:18;19.00;80.60
2751;DHT22;1383;48.362;10.908;2022-08-25T06:04:04;19.30;79.50
2751;DHT22;1383;48.362;10.908;2022-08-25T06:06:31;19.60;76.80
2751;DHT22;1383;48.362;10.908;2022-08-25T06:08:58;19.70;74.30
2751;DHT22;1383;48.362;10.908;2022-08-25T06:11:27;19.80;73.20
2751;DHT22;1383;48.362;10.908;2022-08-25T06:13:54;20.00;71.70
2751;DHT22;1383;48.362;10.908;2022-08-25T06:16:20;20.20;70.40
2751;DHT22;1383;48.362;10.908;2022-08-25T06:18:47;20.20;68.90
2751;DHT22;1383;48.362;10.908;2022-08-25T06:21:14;20.20;69.40
2751;DHT22;1383;48.362;10.908;2022-08-25T06:23:42;20.40;68.70
2751;DHT22;1383;48.362;10.908;2022-08-25T06:26:10;20.70;67.80
2751;DHT22;1383;48.362;10.908;2022-08-25T06:28:48;21.10;65.50
2751;DHT22;1383;48.362;10.908;2022-08-25T06:31:15;21.40;63.00
2751;DHT22;1383;48.362;10.908;2022-08-25T06:33:43;21.60;60.30
2751;DHT22;1383;48.362;10.908;2022-08-25T06:36:10;21.60;59.60
2751;DHT22;1383;48.362;10.908;2022-08-25T06:38:36;21.70;60.60
2751;DHT22;1383;48.362;10.908;2022-08-25T06:41:04;21.70;60.00
2751;DHT22;1383;48.362;10.908;2022-08-25T06:43:32;21.80;59.60
2751;DHT22;1383;48.362;10.908;2022-08-25T06:46:11;21.90;58.80
2751;DHT22;1383;48.362;10.908;2022-08-25T06:48:39;22.00;58.50
2751;DHT22;1383;48.362;10.908;2022-08-25T06:51:08;22.20;57.60
2751;DHT22;1383;48.362;10.908;2022-08-25T06:53:39;22.30;57.60
2751;DHT22;1383;48.362;10.908;2022-08-25T06:56:06;22.40;57.60
2751;DHT22;1383;48.362;10.908;2022-08-25T06:58:34;22.70;56.50
2751;DHT22;1383;48.362;10.908;2022-08-25T07:01:22;22.90;55.00
2751;DHT22;1383;48.362;10.908;2022-08-25T07:03:57;23.00;54.70
2751;DHT22;1383;48.362;10.908;2022-08-25T07:06:27;23.30;53.40
2751;DHT22;1383;48.362;10.908;2022-08-25T07:08:54;23.40;52.60
2751;DHT22;1383;48.362;10.908;2022-08-25T07:11:21;23.70;52.00
2751;DHT22;1383;48.362;10.908;2022-08-25T07:13:48;24.10;51.00
2751;DHT22;1383;48.362;10.908;2022-08-25T07:16:17;24.30;49.20
2751;DHT22;1383;48.362;10.908;2022-08-25T07:18:46;24.40;49.80
2751;DHT22;1383;48.362;10.908;2022-08-25T07:21:14;24.60;47.60
2751;DHT22;1383;48.362;10.908;2022-08-25T07:23:41;24.70;48.10
2751;DHT22;1383;48.362;10.908;2022-08-25T07:26:12;25.00;47.50
2751;DHT22;1383;48.362;10.908;2022-08-25T07:29:01;25.10;45.80
2751;DHT22;1383;48.362;10.908;2022-08-25T07:31:28;25.20;46.20
2751;DHT22;1383;48.362;10.908;2022-08-25T07:33:56;25.60;45.60
2751;DHT22;1383;48.362;10.908;2022-08-25T07:36:42;25.80;43.80
2751;DHT22;1383;48.362;10.908;2022-08-25T07:39:09;25.50;44.00
2751;DHT22;1383;48.362;10.908;2022-08-25T07:41:38;25.60;45.30
2751;DHT22;1383;48.362;10.908;2022-08-25T07:44:06;25.50;43.70
2751;DHT22;1383;48.362;10.908;2022-08-25T07:46:33;25.60;44.60
2751;DHT22;1383;48.362;10.908;2022-08-25T07:49:00;26.00;43.70
2751;DHT22;1383;48.362;10.908;2022-08-25T07:51:27;25.90;42.50
2751;DHT22;1383;48.362;10.908;2022-08-25T07:53:54;25.70;43.10
2751;DHT22;1383;48.362;10.908;2022-08-25T07:56:21;25.50;44.20
2751;DHT22;1383;48.362;10.908;2022-08-25T07:58:48;25.20;44.80
2751;DHT22;1383;48.362;10.908;2022-08-25T08:01:18;25.40;44.90
2751;DHT22;1383;48.362;10.908;2022-08-25T08:03:45;25.60;44.90
2751;DHT22;1383;48.362;10.908;2022-08-25T08:06:20;25.90;44.00
2751;DHT22;1383;48.362;10.908;2022-08-25T08:08:50;26.30;43.50
2751;DHT22;1383;48.362;10.908;2022-08-25T08:11:32;26.10;42.50
2751;DHT22;1383;48.362;10.908;2022-08-25T08:14:00;25.80;43.70
2751;DHT22;1383;48.362;10.908;2022-08-25T08:16:28;25.90;43.00
2751;DHT22;1383;48.362;10.908;2022-08-25T08:18:56;25.90;42.40
2751;DHT22;1383;48.362;10.908;2022-08-25T08:21:26;25.70;43.60
2751;DHT22;1383;48.362;10.908;2022-08-25T08:23:54;25.80;43.20
2751;DHT22;1383;48.362;10.908;2022-08-25T08:26:25;25.90;43.20
2751;DHT22;1383;48.362;10.908;2022-08-25T08:29:12;26.10;42.10
2751;DHT22;1383;48.362;10.908;2022-08-25T08:31:40;26.10;42.70
2751;DHT22;1383;48.362;10.908;2022-08-25T08:34:14;26.20;42.70
2751;DHT22;1383;48.362;10.908;2022-08-25T08:36:41;26.60;41.00
2751;DHT22;1383;48.362;10.908;2022-08-25T08:39:11;26.30;40.80
2751;DHT22;1383;48.362;10.908;2022-08-25T08:45:14;25.90;41.90
2751;DHT22;1383;48.362;10.908;2022-08-25T08:50:29;26.00;42.50
2751;DHT22;1383;48.362;10.908;2022-08-25T08:55:58;26.50;41.40
2751;DHT22;1383;48.362;10.908;2022-08-25T08:58:38;26.90;40.10
2751;DHT22;1383;48.362;10.908;2022-08-25T09:01:09;27.10;38.30
2751;DHT22;1383;48.362;10.908;2022-08-25T09:03:40;27.10;39.70
2751;DHT22;1383;48.362;10.908;2022-08-25T09:06:11;27.00;38.00
2751;DHT22;1383;48.362;10.908;2022-08-25T09:08:40;27.00;38.60
2751;DHT22;1383;48.362;10.908;2022-08-25T09:11:17;26.90;38.30
2751;DHT22;1383;48.362;10.908;2022-08-25T09:22:17;27.50;37.40
2751;DHT22;1383;48.362;10.908;2022-08-25T09:31:21;27.90;35.80
2751;DHT22;1383;48.362;10.908;2022-08-25T09:33:57;28.30;35.30
2751;DHT22;1383;48.362;10.908;2022-08-25T09:36:27;28.40;33.80
2751;DHT22;1383;48.362;10.908;2022-08-25T09:38:56;27.90;35.60
2751;DHT22;1383;48.362;10.908;2022-08-25T09:41:53;28.20;35.80
2751;DHT22;1383;48.362;10.908;2022-08-25T09:44:32;28.10;34.80
2751;DHT22;1383;48.362;10.908;2022-08-25T09:47:06;28.20;34.00
2751;DHT22;1383;48.362;10.908;2022-08-25T09:49:42;28.30;34.30
2751;DHT22;1383;48.362;10.908;2022-08-25T09:52:23;28.50;34.30
2751;DHT22;1383;48.362;10.908;2022-08-25T09:54:52;28.20;33.00
2751;DHT22;1383;48.362;10.908;2022-08-25T09:57:34;28.10;34.00
2751;DHT22;1383;48.362;10.908;2022-08-25T10:00:31;28.20;34.90
2751;DHT22;1383;48.362;10.908;2022-08-25T10:03:18;28.90;33.10
2751;DHT22;1383;48.362;10.908;2022-08-25T10:08:38;29.10;32.10
2751;DHT22;1383;48.362;10.908;2022-08-25T10:11:11;29.00;32.00
2751;DHT22;1383;48.362;10.908;2022-08-25T10:16:23;28.90;31.40
2751;DHT22;1383;48.362;10.908;2022-08-25T10:19:04;29.40;31.60
2751;DHT22;1383;48.362;10.908;2022-08-25T10:21:33;29.30;30.00
2751;DHT22;1383;48.362;10.908;2022-08-25T10:24:01;28.90;30.70
2751;DHT22;1383;48.362;10.908;2022-08-25T10:26:58;28.60;31.80
2751;DHT22;1383;48.362;10.908;2022-08-25T10:32:33;28.90;31.10
2751;DHT22;1383;48.362;10.908;2022-08-25T10:35:11;28.30;32.00
2751;DHT22;1383;48.362;10.908;2022-08-25T10:38:04;27.90;33.00
2751;DHT22;1383;48.362;10.908;2022-08-25T10:40:43;28.00;32.80
2751;DHT22;1383;48.362;10.908;2022-08-25T10:48:50;27.50;34.00
2751;DHT22;1383;48.362;10.908;2022-08-25T10:57:34;27.40;35.70
2751;DHT22;1383;48.362;10.908;2022-08-25T11:02:44;27.10;36.90
2751;DHT22;1383;48.362;10.908;2022-08-25T11:05:36;27.00;35.10
2751;DHT22;1383;48.362;10.908;2022-08-25T11:10:59;26.80;35.40
2751;DHT22;1383;48.362;10.908;2022-08-25T11:16:09;26.60;37.00
2751;DHT22;1383;48.362;10.908;2022-08-25T11:21:51;26.70;37.50
2751;DHT22;1383;48.362;10.908;2022-08-25T11:24:40;26.80;37.60
2751;DHT22;1383;48.362;10.908;2022-08-25T11:27:17;26.70;36.20
2751;DHT22;1383;48.362;10.908;2022-08-25T11:30:09;26.50;38.00
2751;DHT22;1383;48.362;10.908;2022-08-25T11:32:37;26.60;38.20
2751;DHT22;1383;48.362;10.908;2022-08-25T11:35:10;26.70;37.70
2751;DHT22;1383;48.362;10.908;2022-08-25T11:51:48;27.50;35.80
2751;DHT22;1383;48.362;10.908;2022-08-25T12:02:42;27.10;34.70
2751;DHT22;1383;48.362;10.908;2022-08-25T12:08:12;27.10;36.10
2751;DHT22;1383;48.362;10.908;2022-08-25T12:11:03;27.30;34.60
2751;DHT22;1383;48.362;10.908;2022-08-25T12:13:50;27.50;35.30
2751;DHT22;1383;48.362;10.908;2022-08-25T12:27:37;27.40;30.00
2751;DHT22;1383;48.362;10.908;2022-08-25T12:30:19;27.40;31.70
2751;DHT22;1383;48.362;10.908;2022-08-25T12:33:22;27.30;33.20
2751;DHT22;1383;48.362;10.908;2022-08-25T12:36:04;27.50;34.90
2751;DHT22;1383;48.362;10.908;2022-08-25T12:41:13;27.60;35.30
2751;DHT22;1383;48.362;10.908;2022-08-25T12:43:43;27.50;34.70
2751;DHT22;1383;48.362;10.908;2022-08-25T12:54:12;27.50;34.10
2751;DHT22;1383;48.362;10.908;2022-08-25T12:57:03;27.60;34.20
2751;DHT22;1383;48.362;10.908;2022-08-25T12:59:42;27.60;34.30
2751;DHT22;1383;48.362;10.908;2022-08-25T13:02:48;27.70;34.70
2751;DHT22;1383;48.362;10.908;2022-08-25T13:09:19;27.50;32.60
2751;DHT22;1383;48.362;10.908;2022-08-25T13:14:25;27.70;32.60
2751;DHT22;1383;48.362;10.908;2022-08-25T13:16:56;27.80;31.60
2751;DHT22;1383;48.362;10.908;2022-08-25T13:19:25;27.80;31.80
2751;DHT22;1383;48.362;10.908;2022-08-25T13:22:02;27.80;31.90
2751;DHT22;1383;48.362;10.908;2022-08-25T13:24:43;27.70;32.40
2751;DHT22;1383;48.362;10.908;2022-08-25T13:27:35;27.70;32.60
2751;DHT22;1383;48.362;10.908;2022-08-25T13:30:03;27.80;30.90
2751;DHT22;1383;48.362;10.908;2022-08-25T13:32:35;27.90;31.00
2751;DHT22;1383;48.362;10.908;2022-08-25T13:35:25;27.90;31.30
2751;DHT22;1383;48.362;10.908;2022-08-25T13:38:15;28.10;31.40
2751;DHT22;1383;48.362;10.908;2022-08-25T13:40:42;28.20;29.10
2751;DHT22;1383;48.362;10.908;2022-08-25T13:43:12;28.30;29.70
2751;DHT22;1383;48.362;10.908;2022-08-25T13:45:45;28.50;30.20
2751;DHT22;1383;48.362;10.908;2022-08-25T13:48:37;28.50;30.80
2751;DHT22;1383;48.362;10.908;2022-08-25T13:51:22;28.40;31.20
2751;DHT22;1383;48.362;10.908;2022-08-25T13:54:00;28.20;31.00
2751;DHT22;1383;48.362;10.908;2022-08-25T13:56:34;28.10;31.40
2751;DHT22;1383;48.362;10.908;2022-08-25T13:59:21;27.90;31.10
2751;DHT22;1383;48.362;10.908;2022-08-25T14:01:50;27.80;31.80
2751;DHT22;1383;48.362;10.908;2022-08-25T14:09:49;27.90;29.90
2751;DHT22;1383;48.362;10.908;2022-08-25T14:12:29;28.10;29.20
2751;DHT22;1383;48.362;10.908;2022-08-25T14:15:02;28.20;29.30
2751;DHT22;1383;48.362;10.908;2022-08-25T14:17:30;28.30;28.60
2751;DHT22;1383;48.362;10.908;2022-08-25T14:20:18;28.30;28.70
2751;DHT22;1383;48.362;10.908;2022-08-25T14:22:54;28.30;28.60
2751;DHT22;1383;48.362;10.908;2022-08-25T14:25:25;28.50;29.70
2751;DHT22;1383;48.362;10.908;2022-08-25T14:27:57;28.70;30.20
2751;DHT22;1383;48.362;10.908;2022-08-25T14:30:35;28.80;30.00
2751;DHT22;1383;48.362;10.908;2022-08-25T14:33:03;29.00;28.90
2751;DHT22;1383;48.362;10.908;2022-08-25T14:35:32;28.90;28.50
2751;DHT22;1383;48.362;10.908;2022-08-25T14:38:06;28.90;29.10
2751;DHT22;1383;48.362;10.908;2022-08-25T14:40:34;28.90;29.50
2751;DHT22;1383;48.362;10.908;2022-08-25T14:43:01;28.80;30.00
2751;DHT22;1383;48.362;10.908;2022-08-25T14:45:30;28.70;29.00
2751;DHT22;1383;48.362;10.908;2022-08-25T14:48:05;28.60;30.00
2751;DHT22;1383;48.362;10.908;2022-08-25T14:50:36;28.60;30.10
2751;DHT22;1383;48.362;10.908;2022-08-25T14:53:07;28.50;30.00
2751;DHT22;1383;48.362;10.908;2022-08-25T14:55:34;28.30;30.00
2751;DHT22;1383;48.362;10.908;2022-08-25T14:58:01;28.30;30.10
2751;DHT22;1383;48.362;10.908;2022-08-25T15:00:35;28.40;30.40
2751;DHT22;1383;48.362;10.908;2022-08-25T15:03:03;28.30;29.60
2751;DHT22;1383;48.362;10.908;2022-08-25T15:05:30;28.30;30.00
2751;DHT22;1383;48.362;10.908;2022-08-25T15:07:57;28.40;29.70
2751;DHT22;1383;48.362;10.908;2022-08-25T15:10:43;28.30;29.40
2751;DHT22;1383;48.362;10.908;2022-08-25T15:13:10;28.40;29.90
2751;DHT22;1383;48.362;10.908;2022-08-25T15:15:40;28.50;29.40
2751;DHT22;1383;48.362;10.908;2022-08-25T15:18:19;28.50;29.20
2751;DHT22;1383;48.362;10.908;2022-08-25T15:20:46;28.50;29.20
2751;DHT22;1383;48.362;10.908;2022-08-25T15:23:16;28.30;28.40
2751;DHT22;1383;48.362;10.908;2022-08-25T15:25:45;28.30;28.90
2751;DHT22;1383;48.362;10.908;2022-08-25T15:28:14;28.20;29.10
2751;DHT22;1383;48.362;10.908;2022-08-25T15:30:43;28.20;28.60
2751;DHT22;1383;48.362;10.908;2022-08-25T15:33:12;28.10;29.30
2751;DHT22;1383;48.362;10.908;2022-08-25T15:35:39;28.10;29.30
2751;DHT22;1383;48.362;10.908;2022-08-25T15:38:06;28.20;28.90
2751;DHT22;1383;48.362;10.908;2022-08-25T15:40:34;28.20;28.90
2751;DHT22;1383;48.362;10.908;2022-08-25T15:43:04;28.20;29.30
2751;DHT22;1383;48.362;10.908;2022-08-25T15:45:32;28.30;29.40
2751;DHT22;1383;48.362;10.908;2022-08-25T15:48:03;28.30;28.90
2751;DHT22;1383;48.362;10.908;2022-08-25T15:50:35;28.20;28.50
2751;DHT22;1383;48.362;10.908;2022-08-25T15:53:04;28.30;28.90
2751;DHT22;1383;48.362;10.908;2022-08-25T15:55:38;28.30;28.70
2751;DHT22;1383;48.362;10.908;2022-08-25T15:58:06;28.30;28.10
2751;DHT22;1383;48.362;10.908;2022-08-25T16:00:35;28.20;27.80
2751;DHT22;1383;48.362;10.908;2022-08-25T16:03:03;28.20;27.60
2751;DHT22;1383;48.362;10.908;2022-08-25T16:05:37;28.20;28.20
2751;DHT22;1383;48.362;10.908;2022-08-25T16:08:07;28.30;26.40
2751;DHT22;1383;48.362;10.908;2022-08-25T16:10:44;28.40;26.70
2751;DHT22;1383;48.362;10.908;2022-08-25T16:13:12;28.40;26.00
2751;DHT22;1383;48.362;10.908;2022-08-25T16:15:39;28.30;29.20
2751;DHT22;1383;48.362;10.908;2022-08-25T16:18:07;28.30;29.60
2751;DHT22;1383;48.362;10.908;2022-08-25T16:20:35;28.20;29.70
2751;DHT22;1383;48.362;10.908;2022-08-25T16:23:02;28.10;30.00
2751;DHT22;1383;48.362;10.908;2022-08-25T16:25:30;27.90;30.00
2751;DHT22;1383;48.362;10.908;2022-08-25T16:27:57;27.70;30.00
2751;DHT22;1383;48.362;10.908;2022-08-25T16:30:24;27.80;30.70
2751;DHT22;1383;48.362;10.908;2022-08-25T16:32:52;27.80;29.80
2751;DHT22;1383;48.362;10.908;2022-08-25T16:35:19;27.90;29.90
2751;DHT22;1383;48.362;10.908;2022-08-25T16:37:47;27.90;29.40
2751;DHT22;1383;48.362;10.908;2022-08-25T16:40:15;27.80;29.50
2751;DHT22;1383;48.362;10.908;2022-08-25T16:42:45;27.80;30.20
2751;DHT22;1383;48.362;10.908;2022-08-25T16:45:12;27.80;30.90
2751;DHT22;1383;48.362;10.908;2022-08-25T16:47:39;27.90;31.10
2751;DHT22;1383;48.362;10.908;2022-08-25T16:50:08;27.90;31.20
2751;DHT22;1383;48.362;10.908;2022-08-25T16:52:36;27.80;30.90
2751;DHT22;1383;48.362;10.908;2022-08-25T16:55:24;27.80;30.70
2751;DHT22;1383;48.362;10.908;2022-08-25T16:57:52;27.80;30.60
2751;DHT22;1383;48.362;10.908;2022-08-25T17:00:23;27.80;30.60
2751;DHT22;1383;48.362;10.908;2022-08-25T17:02:58;27.80;30.50
2751;DHT22;1383;48.362;10.908;2022-08-25T17:05:27;27.60;31.30
2751;DHT22;1383;48.362;10.908;2022-08-25T17:07:57;27.70;30.80
2751;DHT22;1383;48.362;10.908;2022-08-25T17:10:43;27.50;30.50
2751;DHT22;1383;48.362;10.908;2022-08-25T17:13:10;27.60;29.80
2751;DHT22;1383;48.362;10.908;2022-08-25T17:15:41;27.50;29.90
2751;DHT22;1383;48.362;10.908;2022-08-25T17:18:09;27.50;29.80
2751;DHT22;1383;48.362;10.908;2022-08-25T17:20:38;27.50;30.00
2751;DHT22;1383;48.362;10.908;2022-08-25T17:23:05;27.40;29.90
2751;DHT22;1383;48.362;10.908;2022-08-25T17:25:40;27.50;29.80
2751;DHT22;1383;48.362;10.908;2022-08-25T17:28:09;27.50;29.70
2751;DHT22;1383;48.362;10.908;2022-08-25T17:30:38;27.40;29.60
2751;DHT22;1383;48.362;10.908;2022-08-25T17:33:05;27.30;29.70
2751;DHT22;1383;48.362;10.908;2022-08-25T17:35:41;27.30;30.00
2751;DHT22;1383;48.362;10.908;2022-08-25T17:38:10;27.30;30.30
2751;DHT22;1383;48.362;10.908;2022-08-25T17:40:38;27.30;29.90
2751;DHT22;1383;48.362;10.908;2022-08-25T17:43:06;27.10;30.10
2751;DHT22;1383;48.362;10.908;2022-08-25T17:45:35;27.10;30.00
2751;DHT22;1383;48.362;10.908;2022-08-25T17:48:05;27.10;30.10
2751;DHT22;1383;48.362;10.908;2022-08-25T17:50:34;27.10;30.50
2751;DHT22;1383;48.362;10.908;2022-08-25T17:53:02;27.10;30.90
2751;DHT22;1383;48.362;10.908;2022-08-25T17:55:30;27.00;31.60
2751;DHT22;1383;48.362;10.908;2022-08-25T17:57:57;26.90;31.40
2751;DHT22;1383;48.362;10.908;2022-08-25T18:00:24;26.80;32.00
2751;DHT22;1383;48.362;10.908;2022-08-25T18:02:51;26.80;32.60
2751;DHT22;1383;48.362;10.908;2022-08-25T18:05:20;26.70;32.60
2751;DHT22;1383;48.362;10.908;2022-08-25T18:07:48;26.70;33.70